Terminal Aerodrome Forecast
Issued by NWS Austin/San Antonio, TX

Home | Current Version | Previous Version | Text Only | Print | Product List | Glossary On
Versions: 1 2 3 4 5 6 7 8 9 10 11 12 13 14 15 16 17 18 19 20 21 22 23 24 25 26 27 28 29
695
FTUS44 KEWX 071122
TAFAUS
TAF
KAUS 071122Z 0712/0818 36003KT 6SM BR SCT025
     FM071600 14003KT P6SM SCT025 OVC040
     FM080000 01004KT P6SM BKN025
     FM080900 01020KT P6SM OVC025
     FM081300 36022G32KT P6SM OVC015=

USA.gov is the U.S. government's official web portal to all federal, state and local government web resources and services.